EWG4IC LFKJ-LICJ
Flight info
| Callsign | EWG4IC |
|---|---|
| Flight time | 0h 49m |
| Altitude | 37000 |
| Route | CORSI DCT IDEPA DCT ABKON DCT GIANO |
| Aircraft | A320/M-SDE3FGHIRWY/LB1 |
Departure
| Time | 2026-04-23 08:06 |
|---|---|
| Airport | Ajaccio Napoléon Bonaparte airport (LFKJ) |
Arrival
| Time | 2026-04-23 08:55 |
|---|---|
| Airport | Falcone–Borsellino Airport (LICJ) |
| Time | Latitude | Longitude | Altitude | Speed | Heading |
|---|---|---|---|---|---|
| 2026-04-23 07:49 | 41.92067 | 8.79646 | 26 ft | 0 kts | 345° |
| 2026-04-23 07:56 | 41.92066 | 8.79647 | 26 ft | 2 kts | 337° |
| 2026-04-23 07:56 | 41.92071 | 8.79630 | 26 ft | 0 kts | 291° |
| 2026-04-23 07:56 | 41.92072 | 8.79629 | 26 ft | 0 kts | 291° |
| 2026-04-23 07:57 | 41.92071 | 8.79630 | 26 ft | 2 kts | 291° |
| 2026-04-23 07:57 | 41.92065 | 8.79651 | 26 ft | 2 kts | 291° |
| 2026-04-23 07:57 | 41.92059 | 8.79672 | 30 ft | 2 kts | 291° |
| 2026-04-23 07:58 | 41.92052 | 8.79693 | 28 ft | 2 kts | 332° |
| 2026-04-23 07:58 | 41.92040 | 8.79697 | 28 ft | 0 kts | 22° |
| 2026-04-23 08:01 | 41.92041 | 8.79697 | 26 ft | 2 kts | 22° |
| 2026-04-23 08:01 | 41.92119 | 8.79745 | 28 ft | 22 kts | 25° |
| 2026-04-23 08:02 | 41.92261 | 8.79835 | 27 ft | 29 kts | 25° |
| 2026-04-23 08:02 | 41.92447 | 8.79951 | 30 ft | 30 kts | 25° |
| 2026-04-23 08:02 | 41.92637 | 8.80068 | 30 ft | 30 kts | 23° |
| 2026-04-23 08:02 | 41.92813 | 8.80203 | 27 ft | 26 kts | 43° |
| 2026-04-23 08:03 | 41.92926 | 8.80355 | 29 ft | 13 kts | 45° |
| 2026-04-23 08:03 | 41.92964 | 8.80450 | 31 ft | 3 kts | 86° |
| 2026-04-23 08:04 | 41.92963 | 8.80463 | 31 ft | 5 kts | 95° |
| 2026-04-23 08:04 | 41.92947 | 8.80533 | 32 ft | 7 kts | 115° |
| 2026-04-23 08:04 | 41.92899 | 8.80563 | 31 ft | 9 kts | 198° |
| 2026-04-23 08:05 | 41.92882 | 8.80552 | 31 ft | 1 kts | 207° |
| 2026-04-23 08:05 | 41.92819 | 8.80512 | 30 ft | 32 kts | 204° |
| 2026-04-23 08:05 | 41.92358 | 8.80227 | 21 ft | 108 kts | 205° |
| 2026-04-23 08:05 | 41.91498 | 8.79700 | 46 ft | 159 kts | 203° |
| 2026-04-23 08:06 | 41.90492 | 8.79046 | 651 ft | 160 kts | 210° |
| 2026-04-23 08:06 | 41.89614 | 8.78149 | 1375 ft | 158 kts | 224° |
| 2026-04-23 08:06 | 41.88919 | 8.77001 | 1994 ft | 162 kts | 238° |
| 2026-04-23 08:06 | 41.88427 | 8.75640 | 2622 ft | 165 kts | 250° |
| 2026-04-23 08:07 | 41.88049 | 8.74186 | 3327 ft | 163 kts | 249° |
| 2026-04-23 08:07 | 41.87614 | 8.72809 | 4054 ft | 155 kts | 247° |
| 2026-04-23 08:07 | 41.87166 | 8.71566 | 4767 ft | 145 kts | 241° |
| 2026-04-23 08:07 | 41.86667 | 8.70393 | 5257 ft | 153 kts | 240° |
| 2026-04-23 08:08 | 41.86087 | 8.69047 | 5570 ft | 176 kts | 240° |
| 2026-04-23 08:08 | 41.85447 | 8.67564 | 5872 ft | 197 kts | 240° |
| 2026-04-23 08:08 | 41.84716 | 8.65888 | 6120 ft | 219 kts | 237° |
| 2026-04-23 08:08 | 41.83691 | 8.64223 | 6400 ft | 245 kts | 223° |
| 2026-04-23 08:09 | 41.82250 | 8.62805 | 6831 ft | 270 kts | 208° |
| 2026-04-23 08:09 | 41.80447 | 8.61890 | 7470 ft | 284 kts | 191° |
| 2026-04-23 08:09 | 41.78462 | 8.61669 | 8318 ft | 290 kts | 175° |
| 2026-04-23 08:09 | 41.76478 | 8.62215 | 9182 ft | 295 kts | 160° |
| 2026-04-23 08:10 | 41.74514 | 8.63092 | 10077 ft | 301 kts | 160° |
| 2026-04-23 08:10 | 41.72481 | 8.64001 | 10640 ft | 319 kts | 160° |
| 2026-04-23 08:10 | 41.68028 | 8.65986 | 11736 ft | 349 kts | 160° |
| 2026-04-23 08:11 | 41.65698 | 8.67018 | 12526 ft | 356 kts | 161° |
| 2026-04-23 08:11 | 41.63320 | 8.68066 | 13244 ft | 364 kts | 161° |
| 2026-04-23 08:11 | 41.60886 | 8.69135 | 13986 ft | 371 kts | 162° |
| 2026-04-23 08:11 | 41.58415 | 8.70221 | 14656 ft | 378 kts | 162° |
| 2026-04-23 08:12 | 41.55900 | 8.71329 | 15330 ft | 384 kts | 162° |
| 2026-04-23 08:12 | 41.53348 | 8.72455 | 16026 ft | 389 kts | 163° |
| 2026-04-23 08:12 | 41.50759 | 8.73592 | 16700 ft | 394 kts | 163° |
| 2026-04-23 08:12 | 41.48135 | 8.74742 | 17356 ft | 400 kts | 163° |
| 2026-04-23 08:13 | 41.45471 | 8.75908 | 18011 ft | 406 kts | 164° |
| 2026-04-23 08:13 | 41.42765 | 8.77093 | 18594 ft | 413 kts | 165° |
| 2026-04-23 08:13 | 41.40017 | 8.78297 | 19148 ft | 418 kts | 165° |
| 2026-04-23 08:13 | 41.37237 | 8.79517 | 19739 ft | 422 kts | 164° |
| 2026-04-23 08:14 | 41.34511 | 8.81046 | 20326 ft | 429 kts | 153° |
| 2026-04-23 08:14 | 41.31979 | 8.83195 | 20905 ft | 434 kts | 142° |
| 2026-04-23 08:14 | 41.29713 | 8.85877 | 21483 ft | 438 kts | 135° |
| 2026-04-23 08:14 | 41.27542 | 8.88672 | 22043 ft | 442 kts | 135° |
| 2026-04-23 08:15 | 41.25323 | 8.91523 | 22618 ft | 446 kts | 135° |
| 2026-04-23 08:15 | 41.23078 | 8.94400 | 23177 ft | 450 kts | 135° |
| 2026-04-23 08:15 | 41.20810 | 8.97300 | 23718 ft | 454 kts | 135° |
| 2026-04-23 08:15 | 41.18531 | 9.00213 | 24243 ft | 456 kts | 136° |
| 2026-04-23 08:16 | 41.16233 | 9.03143 | 24737 ft | 460 kts | 136° |
| 2026-04-23 08:16 | 41.13920 | 9.06094 | 25184 ft | 463 kts | 136° |
| 2026-04-23 08:16 | 41.11592 | 9.09069 | 25664 ft | 467 kts | 136° |
| 2026-04-23 08:16 | 41.09240 | 9.12072 | 26075 ft | 472 kts | 136° |
| 2026-04-23 08:17 | 41.06867 | 9.15091 | 26506 ft | 475 kts | 136° |
| 2026-04-23 08:17 | 41.04469 | 9.18134 | 26936 ft | 479 kts | 136° |
| 2026-04-23 08:17 | 41.02054 | 9.21194 | 27374 ft | 482 kts | 136° |
| 2026-04-23 08:17 | 40.99619 | 9.24276 | 27786 ft | 486 kts | 136° |
| 2026-04-23 08:18 | 40.97170 | 9.27373 | 28194 ft | 489 kts | 136° |
| 2026-04-23 08:18 | 40.94702 | 9.30494 | 28627 ft | 492 kts | 136° |
| 2026-04-23 08:18 | 40.92224 | 9.33634 | 29041 ft | 496 kts | 136° |
| 2026-04-23 08:18 | 40.89722 | 9.36799 | 29426 ft | 499 kts | 136° |
| 2026-04-23 08:19 | 40.87206 | 9.39978 | 29842 ft | 503 kts | 136° |
| 2026-04-23 08:19 | 40.84666 | 9.43180 | 30228 ft | 506 kts | 136° |
| 2026-04-23 08:19 | 40.82110 | 9.46388 | 30617 ft | 508 kts | 136° |
| 2026-04-23 08:19 | 40.79539 | 9.49611 | 30934 ft | 511 kts | 136° |
| 2026-04-23 08:20 | 40.76955 | 9.52851 | 31221 ft | 514 kts | 136° |
| 2026-04-23 08:20 | 40.74360 | 9.56105 | 31534 ft | 516 kts | 136° |
| 2026-04-23 08:20 | 40.71771 | 9.59402 | 31833 ft | 518 kts | 135° |
| 2026-04-23 08:20 | 40.69267 | 9.62827 | 32252 ft | 518 kts | 132° |
| 2026-04-23 08:21 | 40.66858 | 9.66340 | 32685 ft | 517 kts | 130° |
| 2026-04-23 08:21 | 40.64530 | 9.69862 | 33111 ft | 516 kts | 130° |
| 2026-04-23 08:21 | 40.62186 | 9.73441 | 33516 ft | 516 kts | 130° |
| 2026-04-23 08:21 | 40.59829 | 9.77001 | 33926 ft | 516 kts | 130° |
| 2026-04-23 08:22 | 40.57453 | 9.80527 | 34337 ft | 515 kts | 131° |
| 2026-04-23 08:22 | 40.55051 | 9.84025 | 34744 ft | 514 kts | 131° |
| 2026-04-23 08:22 | 40.52646 | 9.87482 | 35190 ft | 511 kts | 131° |
| 2026-04-23 08:22 | 40.50246 | 9.90913 | 35612 ft | 509 kts | 132° |
| 2026-04-23 08:23 | 40.47853 | 9.94333 | 35989 ft | 507 kts | 131° |
| 2026-04-23 08:23 | 40.45470 | 9.97745 | 36358 ft | 506 kts | 131° |
| 2026-04-23 08:23 | 40.43105 | 10.01148 | 36715 ft | 505 kts | 131° |
| 2026-04-23 08:23 | 40.40746 | 10.04556 | 37006 ft | 504 kts | 131° |
| 2026-04-23 08:24 | 40.38391 | 10.07960 | 37177 ft | 503 kts | 131° |
| 2026-04-23 08:24 | 40.36045 | 10.11343 | 37213 ft | 500 kts | 131° |
| 2026-04-23 08:24 | 40.31367 | 10.18060 | 37194 ft | 498 kts | 131° |
| 2026-04-23 08:25 | 40.26691 | 10.24745 | 37192 ft | 497 kts | 131° |
| 2026-04-23 08:25 | 40.22012 | 10.31419 | 37198 ft | 497 kts | 132° |
| 2026-04-23 08:26 | 40.17331 | 10.38086 | 37193 ft | 497 kts | 132° |
| 2026-04-23 08:26 | 40.12652 | 10.44741 | 37189 ft | 497 kts | 132° |
| 2026-04-23 08:27 | 40.07965 | 10.51391 | 37189 ft | 498 kts | 132° |
| 2026-04-23 08:27 | 40.03307 | 10.57997 | 37223 ft | 498 kts | 132° |
| 2026-04-23 08:28 | 39.98609 | 10.64634 | 37208 ft | 498 kts | 132° |
| 2026-04-23 08:28 | 39.93913 | 10.71259 | 37174 ft | 498 kts | 132° |
| 2026-04-23 08:29 | 39.89207 | 10.77873 | 37170 ft | 498 kts | 132° |
| 2026-04-23 08:29 | 39.84767 | 10.84775 | 37170 ft | 497 kts | 126° |
| 2026-04-23 08:30 | 39.80532 | 10.91887 | 37172 ft | 497 kts | 127° |
| 2026-04-23 08:30 | 39.76280 | 10.98983 | 37169 ft | 497 kts | 127° |
| 2026-04-23 08:31 | 39.72022 | 11.06076 | 37159 ft | 498 kts | 127° |
| 2026-04-23 08:31 | 39.69893 | 11.09624 | 37058 ft | 499 kts | 127° |
| 2026-04-23 08:31 | 39.67758 | 11.13174 | 36806 ft | 499 kts | 127° |
| 2026-04-23 08:32 | 39.65623 | 11.16721 | 36553 ft | 499 kts | 127° |
| 2026-04-23 08:32 | 39.63487 | 11.20271 | 36288 ft | 500 kts | 127° |
| 2026-04-23 08:32 | 39.61347 | 11.23826 | 36035 ft | 500 kts | 127° |
| 2026-04-23 08:32 | 39.59230 | 11.27327 | 35794 ft | 500 kts | 127° |
| 2026-04-23 08:33 | 39.57083 | 11.30867 | 35559 ft | 499 kts | 127° |
| 2026-04-23 08:33 | 39.54938 | 11.34397 | 35305 ft | 497 kts | 127° |
| 2026-04-23 08:33 | 39.52802 | 11.37919 | 35063 ft | 496 kts | 127° |
| 2026-04-23 08:33 | 39.50676 | 11.41426 | 34816 ft | 495 kts | 127° |
| 2026-04-23 08:34 | 39.48553 | 11.44926 | 34586 ft | 493 kts | 127° |
| 2026-04-23 08:34 | 39.46435 | 11.48410 | 34348 ft | 492 kts | 127° |
| 2026-04-23 08:34 | 39.44320 | 11.51886 | 34078 ft | 490 kts | 127° |
| 2026-04-23 08:34 | 39.42926 | 11.54174 | 33889 ft | 489 kts | 127° |
| 2026-04-23 08:35 | 39.40821 | 11.57622 | 33622 ft | 487 kts | 127° |
| 2026-04-23 08:35 | 39.38725 | 11.61053 | 33350 ft | 485 kts | 127° |
| 2026-04-23 08:35 | 39.36636 | 11.64469 | 33083 ft | 484 kts | 127° |
| 2026-04-23 08:35 | 39.34556 | 11.67870 | 32773 ft | 480 kts | 127° |
| 2026-04-23 08:36 | 39.32484 | 11.71255 | 32153 ft | 480 kts | 127° |
| 2026-04-23 08:36 | 39.30415 | 11.74630 | 31581 ft | 479 kts | 127° |
| 2026-04-23 08:36 | 39.28348 | 11.77996 | 31003 ft | 478 kts | 127° |
| 2026-04-23 08:36 | 39.26286 | 11.81357 | 30442 ft | 477 kts | 127° |
| 2026-04-23 08:37 | 39.24229 | 11.84701 | 29838 ft | 475 kts | 128° |
| 2026-04-23 08:37 | 39.22181 | 11.88019 | 29306 ft | 471 kts | 128° |
| 2026-04-23 08:37 | 39.20146 | 11.91306 | 28780 ft | 467 kts | 128° |
| 2026-04-23 08:37 | 39.18132 | 11.94567 | 28239 ft | 462 kts | 128° |
| 2026-04-23 08:38 | 39.16143 | 11.97792 | 27738 ft | 458 kts | 128° |
| 2026-04-23 08:38 | 39.14167 | 12.00994 | 27220 ft | 454 kts | 128° |
| 2026-04-23 08:38 | 39.12202 | 12.04167 | 26687 ft | 451 kts | 128° |
| 2026-04-23 08:38 | 39.10248 | 12.07315 | 26160 ft | 450 kts | 128° |
| 2026-04-23 08:39 | 39.08298 | 12.10454 | 25614 ft | 448 kts | 128° |
| 2026-04-23 08:39 | 39.06361 | 12.13581 | 25056 ft | 446 kts | 128° |
| 2026-04-23 08:39 | 39.04430 | 12.16697 | 24498 ft | 445 kts | 128° |
| 2026-04-23 08:39 | 39.02508 | 12.19791 | 24033 ft | 441 kts | 128° |
| 2026-04-23 08:40 | 39.00592 | 12.22866 | 23517 ft | 438 kts | 129° |
| 2026-04-23 08:40 | 38.98703 | 12.25901 | 23018 ft | 433 kts | 128° |
| 2026-04-23 08:40 | 38.96826 | 12.28913 | 22494 ft | 430 kts | 129° |
| 2026-04-23 08:40 | 38.94958 | 12.31904 | 22001 ft | 427 kts | 129° |
| 2026-04-23 08:41 | 38.93112 | 12.34855 | 21345 ft | 420 kts | 129° |
| 2026-04-23 08:41 | 38.91294 | 12.37761 | 20564 ft | 413 kts | 129° |
| 2026-04-23 08:41 | 38.89520 | 12.40594 | 20072 ft | 400 kts | 129° |
| 2026-04-23 08:41 | 38.87737 | 12.43260 | 19585 ft | 388 kts | 137° |
| 2026-04-23 08:42 | 38.85661 | 12.45363 | 19119 ft | 374 kts | 152° |
| 2026-04-23 08:42 | 38.83394 | 12.46859 | 18699 ft | 361 kts | 159° |
| 2026-04-23 08:42 | 38.81178 | 12.48188 | 18259 ft | 352 kts | 159° |
| 2026-04-23 08:42 | 38.78991 | 12.49511 | 17827 ft | 343 kts | 159° |
| 2026-04-23 08:43 | 38.76838 | 12.50814 | 17443 ft | 341 kts | 159° |
| 2026-04-23 08:43 | 38.74696 | 12.52104 | 17051 ft | 339 kts | 159° |
| 2026-04-23 08:43 | 38.72570 | 12.53382 | 16659 ft | 337 kts | 158° |
| 2026-04-23 08:43 | 38.71368 | 12.54105 | 16435 ft | 335 kts | 158° |
| 2026-04-23 08:44 | 38.70251 | 12.54774 | 16238 ft | 334 kts | 158° |
| 2026-04-23 08:44 | 38.68156 | 12.56031 | 15854 ft | 332 kts | 158° |
| 2026-04-23 08:44 | 38.66073 | 12.57279 | 15469 ft | 329 kts | 158° |
| 2026-04-23 08:45 | 38.64002 | 12.58517 | 15099 ft | 327 kts | 158° |
| 2026-04-23 08:45 | 38.61939 | 12.59745 | 14716 ft | 329 kts | 158° |
| 2026-04-23 08:45 | 38.59857 | 12.60985 | 14336 ft | 331 kts | 158° |
| 2026-04-23 08:45 | 38.57762 | 12.62237 | 13945 ft | 334 kts | 158° |
| 2026-04-23 08:46 | 38.55654 | 12.63500 | 13519 ft | 335 kts | 158° |
| 2026-04-23 08:46 | 38.53541 | 12.64760 | 13120 ft | 336 kts | 158° |
| 2026-04-23 08:46 | 38.51420 | 12.66019 | 12716 ft | 336 kts | 158° |
| 2026-04-23 08:46 | 38.49297 | 12.67279 | 12306 ft | 337 kts | 158° |
| 2026-04-23 08:47 | 38.47168 | 12.68550 | 11889 ft | 338 kts | 157° |
| 2026-04-23 08:47 | 38.45036 | 12.69826 | 11470 ft | 339 kts | 157° |
| 2026-04-23 08:47 | 38.42903 | 12.71098 | 11039 ft | 339 kts | 157° |
| 2026-04-23 08:47 | 38.40768 | 12.72369 | 10597 ft | 339 kts | 158° |
| 2026-04-23 08:48 | 38.38630 | 12.73638 | 10162 ft | 339 kts | 158° |
| 2026-04-23 08:48 | 38.36492 | 12.74905 | 9670 ft | 339 kts | 157° |
| 2026-04-23 08:48 | 38.34358 | 12.76173 | 9203 ft | 337 kts | 157° |
| 2026-04-23 08:48 | 38.32264 | 12.77418 | 8737 ft | 336 kts | 156° |
| 2026-04-23 08:49 | 38.30155 | 12.78670 | 8242 ft | 333 kts | 156° |
| 2026-04-23 08:49 | 38.28060 | 12.79910 | 7760 ft | 331 kts | 156° |
| 2026-04-23 08:49 | 38.25985 | 12.81139 | 7277 ft | 328 kts | 155° |
| 2026-04-23 08:49 | 38.23918 | 12.82353 | 6775 ft | 326 kts | 155° |
| 2026-04-23 08:50 | 38.21851 | 12.83508 | 6246 ft | 324 kts | 156° |
| 2026-04-23 08:50 | 38.19777 | 12.84625 | 5673 ft | 323 kts | 156° |
| 2026-04-23 08:50 | 38.17730 | 12.85714 | 5158 ft | 312 kts | 155° |
| 2026-04-23 08:50 | 38.15780 | 12.86750 | 4660 ft | 296 kts | 155° |
| 2026-04-23 08:51 | 38.13926 | 12.87739 | 4185 ft | 282 kts | 154° |
| 2026-04-23 08:51 | 38.12297 | 12.88935 | 3725 ft | 261 kts | 129° |
| 2026-04-23 08:51 | 38.11521 | 12.90855 | 3289 ft | 237 kts | 91° |
| 2026-04-23 08:51 | 38.11743 | 12.92822 | 2875 ft | 220 kts | 68° |
| 2026-04-23 08:52 | 38.12319 | 12.94574 | 2485 ft | 211 kts | 62° |
| 2026-04-23 08:52 | 38.12950 | 12.96204 | 2308 ft | 197 kts | 60° |
| 2026-04-23 08:52 | 38.13543 | 12.97708 | 2112 ft | 189 kts | 58° |
| 2026-04-23 08:52 | 38.14169 | 12.99185 | 1681 ft | 187 kts | 59° |
| 2026-04-23 08:53 | 38.14732 | 13.00574 | 1473 ft | 168 kts | 63° |
| 2026-04-23 08:53 | 38.15114 | 13.01904 | 1244 ft | 153 kts | 68° |
| 2026-04-23 08:53 | 38.15433 | 13.03093 | 1086 ft | 135 kts | 63° |
| 2026-04-23 08:53 | 38.15836 | 13.04130 | 914 ft | 127 kts | 60° |
| 2026-04-23 08:54 | 38.16216 | 13.05152 | 703 ft | 127 kts | 64° |
| 2026-04-23 08:54 | 38.16608 | 13.06150 | 493 ft | 126 kts | 62° |
| 2026-04-23 08:54 | 38.16937 | 13.07173 | 363 ft | 125 kts | 65° |
| 2026-04-23 08:54 | 38.17264 | 13.08171 | 236 ft | 125 kts | 65° |
| 2026-04-23 08:55 | 38.17606 | 13.09171 | 109 ft | 123 kts | 64° |
| 2026-04-23 08:55 | 38.17942 | 13.10154 | 63 ft | 111 kts | 67° |
| 2026-04-23 08:55 | 38.18168 | 13.10835 | 65 ft | 59 kts | 66° |
| 2026-04-23 08:55 | 38.18260 | 13.11110 | 64 ft | 9 kts | 67° |
| 2026-04-23 08:56 | 38.18330 | 13.11328 | 61 ft | 41 kts | 67° |
| 2026-04-23 08:56 | 38.18443 | 13.11658 | 60 ft | 39 kts | 67° |
| 2026-04-23 08:56 | 38.18523 | 13.11879 | 66 ft | 13 kts | 51° |
| 2026-04-23 08:56 | 38.18590 | 13.11840 | 68 ft | 12 kts | 284° |
| 2026-04-23 08:57 | 38.18599 | 13.11765 | 64 ft | 0 kts | 277° |
| 2026-04-23 08:57 | 38.18600 | 13.11762 | 64 ft | 2 kts | 277° |
| 2026-04-23 08:57 | 38.18606 | 13.11694 | 67 ft | 14 kts | 277° |
| 2026-04-23 08:58 | 38.18613 | 13.11554 | 64 ft | 16 kts | 257° |
| 2026-04-23 08:58 | 38.18572 | 13.11429 | 59 ft | 15 kts | 246° |
| 2026-04-23 08:58 | 38.18532 | 13.11313 | 59 ft | 14 kts | 246° |
| 2026-04-23 08:58 | 38.18530 | 13.11206 | 62 ft | 12 kts | 311° |
| 2026-04-23 08:59 | 38.18545 | 13.11122 | 63 ft | 10 kts | 248° |
| 2026-04-23 08:59 | 38.18522 | 13.11049 | 59 ft | 3 kts | 248° |
| 2026-04-23 08:59 | 38.18518 | 13.11036 | 58 ft | 2 kts | 247° |
| 2026-04-23 08:59 | 38.18511 | 13.11015 | 63 ft | 3 kts | 247° |
| 2026-04-23 09:00 | 38.18497 | 13.10973 | 60 ft | 8 kts | 246° |
| 2026-04-23 09:00 | 38.18471 | 13.10890 | 61 ft | 12 kts | 261° |
| 2026-04-23 09:00 | 38.18496 | 13.10783 | 63 ft | 14 kts | 289° |
| 2026-04-23 09:00 | 38.18494 | 13.10683 | 63 ft | 11 kts | 249° |
| 2026-04-23 09:01 | 38.18505 | 13.10632 | 57 ft | 6 kts | 337° |
| 2026-04-23 09:01 | 38.18538 | 13.10615 | 65 ft | 0 kts | 337° |
| 2026-04-23 09:01 | 38.18552 | 13.10607 | 63 ft | 0 kts | 335° |